createdAt,value
2018-06-29T00:00:32.670Z,0.00
2018-06-29T00:01:32.582Z,0.00
2018-06-29T00:02:32.480Z,0.00
2018-06-29T00:03:32.387Z,0.00
2018-06-29T00:04:32.295Z,0.00
2018-06-29T00:05:32.194Z,0.00
2018-06-29T00:06:32.102Z,0.00
2018-06-29T00:07:32.014Z,0.00
2018-06-29T00:08:31.928Z,0.00
2018-06-29T00:09:31.816Z,0.00
2018-06-29T00:10:31.724Z,0.00
2018-06-29T00:11:31.638Z,0.00
2018-06-29T00:12:31.534Z,0.00
2018-06-29T00:13:31.446Z,0.00
2018-06-29T00:14:31.356Z,0.00
2018-06-29T00:15:31.247Z,0.00
2018-06-29T00:16:31.199Z,0.00
2018-06-29T00:17:31.069Z,0.00
2018-06-29T00:18:30.966Z,0.00
2018-06-29T00:19:30.871Z,0.00
2018-06-29T00:20:30.781Z,0.00
2018-06-29T00:21:30.676Z,0.00
2018-06-29T00:22:30.583Z,0.00
2018-06-29T00:23:30.498Z,0.00
2018-06-29T00:24:30.406Z,0.00
2018-06-29T00:25:30.301Z,0.00
2018-06-29T00:26:30.212Z,0.00
2018-06-29T00:27:30.124Z,0.00
2018-06-29T00:28:30.034Z,0.00
2018-06-29T00:29:29.927Z,0.00
2018-06-29T00:30:29.836Z,0.00
2018-06-29T00:31:29.729Z,0.00
2018-06-29T00:32:29.640Z,0.00
2018-06-29T00:33:29.566Z,0.00
2018-06-29T00:34:29.453Z,0.00
2018-06-29T00:35:29.356Z,0.00
2018-06-29T00:36:29.264Z,0.00
2018-06-29T00:37:29.159Z,0.00
2018-06-29T00:38:29.069Z,0.00
2018-06-29T00:39:29.231Z,0.00
2018-06-29T00:40:28.881Z,0.00
2018-06-29T00:41:28.786Z,0.00
2018-06-29T00:42:28.696Z,0.00
2018-06-29T00:43:28.595Z,0.00
2018-06-29T00:44:28.506Z,0.00
2018-06-29T00:45:28.412Z,0.00
2018-06-29T00:46:28.321Z,0.00
2018-06-29T00:47:28.214Z,0.00
2018-06-29T00:48:28.123Z,0.00
2018-06-29T00:49:28.024Z,0.00
2018-06-29T00:50:27.933Z,0.00
2018-06-29T00:51:27.840Z,0.00
2018-06-29T00:52:27.734Z,0.00
2018-06-29T00:53:27.652Z,0.00
2018-06-29T00:54:27.554Z,0.00
2018-06-29T00:55:27.456Z,0.00
2018-06-29T00:56:27.369Z,0.00
2018-06-29T00:57:27.268Z,0.00
2018-06-29T00:58:27.164Z,0.00
2018-06-29T00:59:27.078Z,0.00
2018-06-29T01:00:26.987Z,0.00
2018-06-29T01:01:26.885Z,0.00
2018-06-29T01:02:26.799Z,0.00
2018-06-29T01:03:26.688Z,0.00
2018-06-29T01:04:26.610Z,0.00
2018-06-29T01:05:26.511Z,0.00
2018-06-29T01:06:26.419Z,0.00
2018-06-29T01:07:26.312Z,0.00
2018-06-29T01:08:26.222Z,0.00
2018-06-29T01:09:26.116Z,0.00
2018-06-29T01:10:26.025Z,0.00
2018-06-29T01:11:25.939Z,0.00
2018-06-29T01:12:25.835Z,0.00
2018-06-29T01:13:25.743Z,0.00
2018-06-29T01:14:25.680Z,0.00
2018-06-29T01:15:25.552Z,0.00
2018-06-29T01:16:25.461Z,0.00
2018-06-29T01:17:25.368Z,0.00
2018-06-29T01:18:25.265Z,0.00
2018-06-29T01:19:25.169Z,0.00
2018-06-29T01:20:25.080Z,0.00
2018-06-29T01:21:25.005Z,0.00
2018-06-29T01:22:24.888Z,0.00
2018-06-29T01:23:24.795Z,0.00
2018-06-29T01:24:24.695Z,0.00
2018-06-29T01:25:24.602Z,0.00
2018-06-29T01:26:24.512Z,0.00
2018-06-29T01:27:24.413Z,0.00
2018-06-29T01:28:24.321Z,0.00
2018-06-29T01:29:24.213Z,0.00
2018-06-29T01:30:24.122Z,0.00
2018-06-29T01:31:24.036Z,0.00
2018-06-29T01:32:23.932Z,0.00
2018-06-29T01:33:23.843Z,0.00
2018-06-29T01:34:23.752Z,0.00
2018-06-29T01:35:23.644Z,0.00
2018-06-29T01:36:23.554Z,0.00
2018-06-29T01:37:23.459Z,0.00
2018-06-29T01:38:23.356Z,0.00
2018-06-29T01:39:23.271Z,0.00
2018-06-29T01:40:23.180Z,0.00
2018-06-29T01:41:23.141Z,0.00
2018-06-29T01:42:22.988Z,0.00
2018-06-29T01:43:22.880Z,0.00
2018-06-29T01:44:23.089Z,0.00
2018-06-29T01:45:22.701Z,0.00
2018-06-29T01:46:22.597Z,0.00
2018-06-29T01:47:22.502Z,0.00
2018-06-29T01:48:22.412Z,0.00
2018-06-29T01:49:22.310Z,0.00
2018-06-29T01:50:22.223Z,0.00
2018-06-29T01:51:22.133Z,0.00
2018-06-29T01:52:22.030Z,0.00
2018-06-29T01:53:21.934Z,0.00
2018-06-29T01:54:22.082Z,0.00
2018-06-29T01:55:21.744Z,0.00
2018-06-29T01:56:21.656Z,0.00
2018-06-29T01:57:21.548Z,0.00
2018-06-29T01:58:21.458Z,0.00
2018-06-29T01:59:21.365Z,0.00
2018-06-29T02:00:21.259Z,0.00
2018-06-29T02:01:21.175Z,0.00
2018-06-29T02:02:21.096Z,4.00
2018-06-29T02:03:20.976Z,4.00
2018-06-29T02:04:21.193Z,4.00
2018-06-29T02:05:20.792Z,0.00
2018-06-29T02:06:20.689Z,4.00
2018-06-29T02:07:20.602Z,4.00
2018-06-29T02:08:20.500Z,4.00
2018-06-29T02:09:20.404Z,8.00
2018-06-29T02:10:20.316Z,4.00
2018-06-29T02:11:20.215Z,4.00
2018-06-29T02:12:20.123Z,8.00
2018-06-29T02:13:20.023Z,4.00
2018-06-29T02:14:19.931Z,8.00
2018-06-29T02:15:19.836Z,8.00
2018-06-29T02:16:19.733Z,8.00
2018-06-29T02:17:19.644Z,12.00
2018-06-29T02:18:19.553Z,16.00
2018-06-29T02:19:19.449Z,12.00
2018-06-29T02:20:19.355Z,16.00
2018-06-29T02:21:19.255Z,20.00
2018-06-29T02:22:19.163Z,20.00
2018-06-29T02:23:19.077Z,24.00
2018-06-29T02:24:18.974Z,24.00
2018-06-29T02:25:18.891Z,24.00
2018-06-29T02:26:18.776Z,28.00
2018-06-29T02:27:18.689Z,36.00
2018-06-29T02:28:18.599Z,36.00
2018-06-29T02:29:18.492Z,40.00
2018-06-29T02:30:18.402Z,44.00
2018-06-29T02:31:18.326Z,48.00
2018-06-29T02:32:18.203Z,52.00
2018-06-29T02:33:18.135Z,60.00
2018-06-29T02:34:18.020Z,64.00
2018-06-29T02:35:17.920Z,72.00
2018-06-29T02:36:17.830Z,80.00
2018-06-29T02:37:17.725Z,88.00
2018-06-29T02:38:17.633Z,92.00
2018-06-29T02:39:17.834Z,100.00
2018-06-29T02:40:17.444Z,108.00
2018-06-29T02:41:17.350Z,120.00
2018-06-29T02:42:17.247Z,132.00
2018-06-29T02:43:17.160Z,140.00
2018-06-29T02:44:17.059Z,152.00
2018-06-29T02:45:16.968Z,164.00
2018-06-29T02:46:16.875Z,176.00
2018-06-29T02:47:16.766Z,188.00
2018-06-29T02:48:16.674Z,208.00
2018-06-29T02:49:16.580Z,220.00
2018-06-29T02:50:16.488Z,236.00
2018-06-29T02:51:16.392Z,256.00
2018-06-29T02:52:16.289Z,268.00
2018-06-29T02:53:16.198Z,288.00
2018-06-29T02:54:16.106Z,308.00
2018-06-29T02:55:16.021Z,324.00
2018-06-29T02:56:15.919Z,348.00
2018-06-29T02:57:15.808Z,364.00
2018-06-29T02:58:15.717Z,388.00
2018-06-29T02:59:15.869Z,412.00
2018-06-29T03:00:15.530Z,432.00
2018-06-29T03:01:15.438Z,456.00
2018-06-29T03:02:15.334Z,476.00
2018-06-29T03:03:15.242Z,496.00
2018-06-29T03:04:15.149Z,516.00
2018-06-29T03:05:15.048Z,540.00
2018-06-29T03:06:14.957Z,556.00
2018-06-29T03:07:14.850Z,580.00
2018-06-29T03:08:14.759Z,600.00
2018-06-29T03:09:14.659Z,624.00
2018-06-29T03:10:14.568Z,652.00
2018-06-29T03:11:14.482Z,680.00
2018-06-29T03:12:14.381Z,708.00
2018-06-29T03:13:14.283Z,740.00
2018-06-29T03:14:14.191Z,768.00
2018-06-29T03:15:14.092Z,800.00
2018-06-29T03:16:14.002Z,836.00
2018-06-29T03:17:13.897Z,868.00
2018-06-29T03:18:13.805Z,900.00
2018-06-29T03:19:13.698Z,936.00
2018-06-29T03:20:13.607Z,968.00
2018-06-29T03:21:13.521Z,1008.00
2018-06-29T03:22:13.432Z,1040.00
2018-06-29T03:23:13.324Z,1072.00
2018-06-29T03:24:13.221Z,1108.00
2018-06-29T03:25:13.173Z,1148.00
2018-06-29T03:26:13.038Z,1184.00
2018-06-29T03:27:12.938Z,1216.00
2018-06-29T03:28:12.846Z,1252.00
2018-06-29T03:29:12.741Z,1284.00
2018-06-29T03:30:12.650Z,1320.00
2018-06-29T03:31:12.561Z,1360.00
2018-06-29T03:32:12.459Z,1404.00
2018-06-29T03:33:12.371Z,1444.00
2018-06-29T03:34:12.279Z,1492.00
2018-06-29T03:35:12.171Z,1532.00
2018-06-29T03:36:12.084Z,1568.00
2018-06-29T03:37:11.980Z,1604.00
2018-06-29T03:38:11.888Z,1640.00
2018-06-29T03:39:11.793Z,1676.00
2018-06-29T03:40:11.759Z,1696.00
2018-06-29T03:41:11.601Z,1712.00
2018-06-29T03:42:11.503Z,1740.00
2018-06-29T03:43:11.415Z,1768.00
2018-06-29T03:44:11.333Z,1800.00
2018-06-29T03:45:11.217Z,1832.00
2018-06-29T03:46:11.127Z,1864.00
2018-06-29T03:47:11.019Z,1908.00
2018-06-29T03:48:10.928Z,1944.00
2018-06-29T03:49:10.839Z,1992.00
2018-06-29T03:50:10.733Z,2052.00
2018-06-29T03:51:10.645Z,2120.00
2018-06-29T03:52:10.563Z,2204.00
2018-06-29T03:53:10.449Z,2272.00
2018-06-29T03:54:10.358Z,2312.00
2018-06-29T03:55:10.260Z,2348.00
2018-06-29T03:56:10.169Z,2432.00
2018-06-29T03:57:10.088Z,2548.00
2018-06-29T03:58:09.972Z,2652.00
2018-06-29T03:59:09.877Z,2716.00
2018-06-29T04:00:09.786Z,2832.00
2018-06-29T04:01:09.687Z,2980.00
2018-06-29T04:02:09.597Z,3188.00
2018-06-29T04:03:09.502Z,3464.00
2018-06-29T04:04:09.398Z,3608.00
2018-06-29T04:05:09.310Z,3644.00
2018-06-29T04:06:09.218Z,3584.00
2018-06-29T04:07:09.119Z,3424.00
2018-06-29T04:08:09.029Z,3284.00
2018-06-29T04:09:08.931Z,3200.00
2018-06-29T04:10:08.848Z,3140.00
2018-06-29T04:11:08.742Z,3088.00
2018-06-29T04:12:08.651Z,3060.00
2018-06-29T04:13:08.550Z,3028.00
2018-06-29T04:14:08.460Z,3072.00
2018-06-29T04:15:08.379Z,3096.00
2018-06-29T04:16:08.276Z,3084.00
2018-06-29T04:17:08.175Z,3120.00
2018-06-29T04:18:08.085Z,3144.00
2018-06-29T04:19:07.989Z,3184.00
2018-06-29T04:20:07.886Z,3208.00
2018-06-29T04:21:07.792Z,3284.00
2018-06-29T04:22:07.702Z,3356.00
2018-06-29T04:23:07.614Z,3508.00
2018-06-29T04:24:07.511Z,3668.00
2018-06-29T04:25:07.419Z,3568.00
2018-06-29T04:26:07.327Z,3464.00
2018-06-29T04:27:07.241Z,3568.00
2018-06-29T04:28:07.138Z,3824.00
2018-06-29T04:29:07.044Z,3924.00
2018-06-29T04:30:06.955Z,3976.00
2018-06-29T04:31:06.872Z,3972.00
2018-06-29T04:32:06.755Z,4020.00
2018-06-29T04:33:06.670Z,4108.00
2018-06-29T04:34:06.578Z,4188.00
2018-06-29T04:35:06.485Z,4284.00
2018-06-29T04:36:06.381Z,4360.00
2018-06-29T04:37:06.291Z,4472.00
2018-06-29T04:38:06.201Z,4384.00
2018-06-29T04:39:06.113Z,4076.00
2018-06-29T04:40:06.024Z,3964.00
2018-06-29T04:41:05.913Z,4812.00
2018-06-29T04:42:05.822Z,5348.00
2018-06-29T04:43:05.735Z,5520.00
2018-06-29T04:44:05.648Z,5756.00
2018-06-29T04:45:05.557Z,5908.00
2018-06-29T04:46:05.453Z,5980.00
2018-06-29T04:47:05.360Z,6044.00
2018-06-29T04:48:05.267Z,6092.00
2018-06-29T04:49:05.178Z,6128.00
2018-06-29T04:50:05.089Z,6184.00
2018-06-29T04:51:04.981Z,6236.00
2018-06-29T04:52:04.893Z,6292.00
2018-06-29T04:53:04.801Z,6344.00
2018-06-29T04:54:04.714Z,6360.00
2018-06-29T04:55:04.623Z,6392.00
2018-06-29T04:56:04.532Z,6428.00
2018-06-29T04:57:04.437Z,6448.00
2018-06-29T04:58:04.344Z,6476.00
2018-06-29T04:59:04.261Z,6516.00
2018-06-29T05:00:04.167Z,6540.00
2018-06-29T05:01:04.094Z,6600.00
2018-06-29T05:02:04.000Z,6640.00
2018-06-29T05:03:03.881Z,6696.00
2018-06-29T05:04:03.801Z,6732.00
2018-06-29T05:05:03.716Z,6764.00
2018-06-29T05:06:03.623Z,6788.00
2018-06-29T05:07:03.517Z,6836.00
2018-06-29T05:08:03.438Z,6864.00
2018-06-29T05:09:03.345Z,6908.00
2018-06-29T05:10:03.255Z,6940.00
2018-06-29T05:11:03.168Z,6980.00
2018-06-29T05:12:03.120Z,7016.00
2018-06-29T05:13:02.984Z,7044.00
2018-06-29T05:14:02.893Z,7068.00
2018-06-29T05:15:02.807Z,7080.00
2018-06-29T05:16:02.716Z,7104.00
2018-06-29T05:17:02.624Z,7128.00
2018-06-29T05:18:02.531Z,7160.00
2018-06-29T05:19:02.441Z,7220.00
2018-06-29T05:20:02.346Z,7256.00
2018-06-29T05:21:02.272Z,7304.00
2018-06-29T05:22:02.185Z,7332.00
2018-06-29T05:23:02.086Z,7388.00
2018-06-29T05:24:01.997Z,7444.00
2018-06-29T05:25:01.908Z,7536.00
2018-06-29T05:26:01.817Z,7600.00
2018-06-29T05:27:01.733Z,7624.00
2018-06-29T05:28:01.640Z,7612.00
2018-06-29T05:29:01.555Z,7640.00
2018-06-29T05:30:01.465Z,7680.00
2018-06-29T05:31:01.378Z,7724.00
2018-06-29T05:32:01.286Z,7744.00
2018-06-29T05:33:01.197Z,7776.00
2018-06-29T05:34:01.119Z,7812.00
2018-06-29T05:35:01.023Z,7864.00
2018-06-29T05:36:00.937Z,7956.00
2018-06-29T05:37:00.850Z,8076.00
2018-06-29T05:38:00.767Z,8168.00
2018-06-29T05:39:00.674Z,8236.00
2018-06-29T05:40:00.595Z,8304.00
2018-06-29T05:41:00.490Z,8344.00
2018-06-29T05:42:00.401Z,8340.00
2018-06-29T05:43:00.324Z,8296.00
2018-06-29T05:44:00.235Z,8200.00
2018-06-29T05:45:00.153Z,8212.00
2018-06-29T05:46:00.062Z,8236.00
2018-06-29T05:47:00.014Z,8280.00
2018-06-29T05:47:59.885Z,8312.00
2018-06-29T05:48:59.793Z,8372.00
2018-06-29T05:49:59.714Z,8480.00
2018-06-29T05:50:59.618Z,8608.00
2018-06-29T05:51:59.534Z,8728.00
2018-06-29T05:52:59.483Z,8844.00
2018-06-29T05:53:59.359Z,8876.00
2018-06-29T05:54:59.273Z,8788.00
2018-06-29T05:55:59.195Z,8848.00
2018-06-29T05:56:59.108Z,9088.00
2018-06-29T05:57:59.015Z,9196.00
2018-06-29T05:58:58.936Z,9060.00
2018-06-29T05:59:58.841Z,8980.00
2018-06-29T06:00:58.754Z,9120.00
2018-06-29T06:01:58.735Z,9348.00
2018-06-29T06:02:58.579Z,9408.00
2018-06-29T06:03:58.489Z,9304.00
2018-06-29T06:04:58.413Z,9240.00
2018-06-29T06:05:58.324Z,9332.00
2018-06-29T06:06:58.247Z,9744.00
2018-06-29T06:07:58.157Z,10352.00
2018-06-29T06:08:58.062Z,10520.00
2018-06-29T06:09:57.985Z,10108.00
2018-06-29T06:10:57.896Z,10212.00
2018-06-29T06:11:57.820Z,10804.00
2018-06-29T06:12:57.725Z,10916.00
2018-06-29T06:13:57.654Z,10776.00
2018-06-29T06:14:57.552Z,11016.00
2018-06-29T06:15:57.495Z,12008.00
2018-06-29T06:16:57.389Z,12820.00
2018-06-29T06:17:57.299Z,12360.00
2018-06-29T06:18:57.217Z,11860.00
2018-06-29T06:19:57.138Z,12796.00
2018-06-29T06:20:57.044Z,14044.00
2018-06-29T06:21:56.968Z,13532.00
2018-06-29T06:22:56.882Z,13024.00
2018-06-29T06:23:56.789Z,13672.00
2018-06-29T06:24:56.710Z,13768.00
2018-06-29T06:25:56.623Z,13468.00
2018-06-29T06:26:56.543Z,14304.00
2018-06-29T06:27:56.450Z,16176.00
2018-06-29T06:28:56.387Z,17568.00
2018-06-29T06:29:56.285Z,17696.00
2018-06-29T06:30:56.203Z,17696.00
2018-06-29T06:31:56.110Z,17664.00
2018-06-29T06:32:56.040Z,16896.00
2018-06-29T06:33:55.944Z,15840.00
2018-06-29T06:34:55.862Z,14912.00
2018-06-29T06:35:55.771Z,15232.00
2018-06-29T06:36:55.695Z,16480.00
2018-06-29T06:37:55.616Z,16768.00
2018-06-29T06:38:55.530Z,16672.00
2018-06-29T06:39:55.452Z,18304.00
2018-06-29T06:40:55.357Z,22432.00
2018-06-29T06:41:55.282Z,23904.00
2018-06-29T06:42:55.203Z,20768.00
2018-06-29T06:43:55.115Z,19008.00
2018-06-29T06:44:55.033Z,18592.00
2018-06-29T06:45:54.943Z,17536.00
2018-06-29T06:46:54.894Z,16768.00
2018-06-29T06:47:54.781Z,17856.00
2018-06-29T06:48:54.697Z,23968.00
2018-06-29T06:49:54.619Z,28832.00
2018-06-29T06:50:54.536Z,26720.00
2018-06-29T06:51:54.445Z,21536.00
2018-06-29T06:52:54.364Z,18752.00
2018-06-29T06:53:54.286Z,18976.00
2018-06-29T06:54:54.199Z,21984.00
2018-06-29T06:55:54.122Z,27680.00
2018-06-29T06:56:54.041Z,29472.00
2018-06-29T06:57:53.963Z,22720.00
2018-06-29T06:58:53.876Z,19040.00
2018-06-29T06:59:53.798Z,18688.00
2018-06-29T07:00:53.717Z,19552.00
2018-06-29T07:01:53.627Z,21024.00
2018-06-29T07:02:53.545Z,21280.00
2018-06-29T07:03:53.466Z,19456.00
2018-06-29T07:04:53.394Z,18880.00
2018-06-29T07:05:53.302Z,18752.00
2018-06-29T07:06:53.220Z,18592.00
2018-06-29T07:07:53.142Z,18624.00
2018-06-29T07:08:53.061Z,18816.00
2018-06-29T07:09:52.971Z,18912.00
2018-06-29T07:10:52.897Z,18848.00
2018-06-29T07:11:52.819Z,19072.00
2018-06-29T07:12:52.736Z,19392.00
2018-06-29T07:13:52.663Z,19680.00
2018-06-29T07:14:52.571Z,20160.00
2018-06-29T07:15:52.492Z,20832.00
2018-06-29T07:16:52.416Z,21088.00
2018-06-29T07:17:52.325Z,21344.00
2018-06-29T07:18:52.244Z,21888.00
2018-06-29T07:19:52.165Z,22880.00
2018-06-29T07:20:52.090Z,24096.00
2018-06-29T07:21:51.997Z,25568.00
2018-06-29T07:22:51.915Z,27392.00
2018-06-29T07:23:51.837Z,28448.00
2018-06-29T07:24:51.760Z,30880.00
2018-06-29T07:25:51.671Z,34656.00
2018-06-29T07:26:51.596Z,42400.00
2018-06-29T07:27:51.518Z,53088.00
2018-06-29T07:28:51.436Z,63648.00
2018-06-29T07:29:51.346Z,72928.00
2018-06-29T07:30:51.271Z,78080.00
2018-06-29T07:31:51.191Z,78240.00
2018-06-29T07:32:51.111Z,71360.00
2018-06-29T07:33:51.032Z,70240.00
2018-06-29T07:34:50.952Z,72640.00
2018-06-29T07:35:50.860Z,79168.00
2018-06-29T07:36:50.789Z,87840.00
2018-06-29T07:37:50.761Z,96032.00
2018-06-29T07:38:50.626Z,99328.00
2018-06-29T07:39:50.549Z,104224.00
2018-06-29T07:40:50.468Z,110688.00
2018-06-29T07:41:50.378Z,118656.00
2018-06-29T07:42:50.304Z,127520.00
2018-06-29T07:43:50.237Z,129888.00
2018-06-29T07:44:50.141Z,144128.00
2018-06-29T07:45:50.064Z,154176.00
2018-06-29T07:46:49.992Z,170848.00
2018-06-29T07:47:49.900Z,189184.00
2018-06-29T07:48:49.826Z,186272.00
2018-06-29T07:49:49.744Z,174272.00
2018-06-29T07:50:49.666Z,155040.00
2018-06-29T07:51:49.585Z,139488.00
2018-06-29T07:52:49.555Z,128576.00
2018-06-29T07:53:49.431Z,117824.00
2018-06-29T07:54:49.346Z,107680.00
2018-06-29T07:55:49.256Z,101024.00
2018-06-29T07:56:49.180Z,95808.00
2018-06-29T07:57:49.101Z,89152.00
2018-06-29T07:58:49.036Z,79392.00
2018-06-29T07:59:48.948Z,71040.00
2018-06-29T08:00:48.870Z,68096.00
2018-06-29T08:01:48.794Z,65536.00
2018-06-29T08:02:48.855Z,63008.00
2018-06-29T08:03:48.670Z,60256.00
2018-06-29T08:04:48.550Z,57184.00
2018-06-29T08:05:48.460Z,54624.00
2018-06-29T08:06:48.387Z,53536.00
2018-06-29T08:07:48.308Z,52480.00
2018-06-29T08:08:48.234Z,50336.00
2018-06-29T08:09:48.149Z,47168.00
2018-06-29T08:10:48.082Z,44640.00
2018-06-29T08:11:47.997Z,43776.00
2018-06-29T08:12:47.917Z,44960.00
2018-06-29T08:13:47.837Z,44384.00
2018-06-29T08:14:47.755Z,43712.00
2018-06-29T08:15:47.682Z,44128.00
2018-06-29T08:16:47.649Z,42336.00
2018-06-29T08:17:47.527Z,40064.00
2018-06-29T08:18:47.446Z,35008.00
2018-06-29T08:19:47.351Z,24928.00
2018-06-29T08:20:47.275Z,15752.00
2018-06-29T08:21:47.197Z,10952.00
2018-06-29T08:22:47.122Z,10404.00
2018-06-29T08:23:47.044Z,10200.00
2018-06-29T08:24:46.962Z,10056.00
2018-06-29T08:25:46.881Z,10088.00
2018-06-29T08:26:46.794Z,9904.00
2018-06-29T08:27:46.719Z,9428.00
2018-06-29T08:28:46.640Z,8968.00
2018-06-29T08:29:46.561Z,8944.00
2018-06-29T08:30:46.466Z,9296.00
2018-06-29T08:31:46.387Z,9448.00
2018-06-29T08:32:46.315Z,9552.00
2018-06-29T08:33:46.223Z,10500.00
2018-06-29T08:34:46.143Z,14852.00
2018-06-29T08:35:46.050Z,26528.00
2018-06-29T08:36:45.969Z,40672.00
2018-06-29T08:37:45.892Z,48064.00
2018-06-29T08:38:45.874Z,53728.00
2018-06-29T08:39:45.726Z,54080.00
2018-06-29T08:40:45.633Z,52896.00
2018-06-29T08:41:45.559Z,54144.00
2018-06-29T08:42:45.469Z,54112.00
2018-06-29T08:43:45.390Z,54080.00
2018-06-29T08:44:45.297Z,55040.00
2018-06-29T08:45:45.231Z,56320.00
2018-06-29T08:46:45.151Z,56736.00
2018-06-29T08:47:45.046Z,57888.00
2018-06-29T08:48:44.972Z,60480.00
2018-06-29T08:49:44.904Z,61472.00
2018-06-29T08:50:44.798Z,63040.00
2018-06-29T08:51:44.720Z,64448.00
2018-06-29T08:52:44.643Z,64448.00
2018-06-29T08:53:44.568Z,64832.00
2018-06-29T08:54:44.479Z,66912.00
2018-06-29T08:55:44.402Z,68544.00
2018-06-29T08:56:44.316Z,70112.00
2018-06-29T08:57:44.237Z,71872.00
2018-06-29T08:58:44.209Z,62752.00
2018-06-29T08:59:44.073Z,66944.00
2018-06-29T09:00:43.998Z,57920.00
2018-06-29T09:01:43.931Z,37952.00
2018-06-29T09:02:43.835Z,33120.00
2018-06-29T09:03:43.758Z,37984.00
2018-06-29T09:04:43.680Z,42368.00
2018-06-29T09:05:43.602Z,44640.00
2018-06-29T09:06:43.508Z,58112.00
2018-06-29T09:07:43.431Z,47328.00
2018-06-29T09:08:43.354Z,46976.00
2018-06-29T09:09:43.275Z,38880.00
2018-06-29T09:10:43.202Z,53344.00
2018-06-29T09:11:43.123Z,39456.00
2018-06-29T09:12:43.039Z,35968.00
2018-06-29T09:13:42.960Z,42528.00
2018-06-29T09:14:42.873Z,46688.00
2018-06-29T09:15:42.796Z,52736.00
2018-06-29T09:16:42.718Z,56160.00
2018-06-29T09:17:42.640Z,59872.00
2018-06-29T09:18:42.807Z,61024.00
2018-06-29T09:19:42.479Z,61152.00
2018-06-29T09:20:42.404Z,61120.00
2018-06-29T09:21:42.327Z,60640.00
2018-06-29T09:22:42.232Z,62112.00
2018-06-29T09:23:42.153Z,61952.00
2018-06-29T09:24:42.076Z,62880.00
2018-06-29T09:25:41.995Z,61408.00
2018-06-29T09:26:41.921Z,63520.00
2018-06-29T09:27:41.845Z,61344.00
2018-06-29T09:28:41.763Z,63168.00
2018-06-29T09:29:41.686Z,58368.00
2018-06-29T09:30:41.612Z,56608.00
2018-06-29T09:31:41.531Z,47520.00
2018-06-29T09:32:41.451Z,55776.00
2018-06-29T09:33:41.374Z,64896.00
2018-06-29T09:34:41.292Z,67296.00
2018-06-29T09:35:41.212Z,67424.00
2018-06-29T09:36:41.141Z,66752.00
2018-06-29T09:37:41.060Z,60640.00
2018-06-29T09:38:40.978Z,43488.00
2018-06-29T09:39:40.900Z,65280.00
2018-06-29T09:40:40.823Z,67008.00
2018-06-29T09:41:40.756Z,65184.00
2018-06-29T09:42:40.693Z,65568.00
2018-06-29T09:43:40.603Z,66592.00
2018-06-29T09:44:40.523Z,67456.00
2018-06-29T09:45:40.452Z,70240.00
2018-06-29T09:46:40.367Z,71520.00
2018-06-29T09:47:40.289Z,69056.00
2018-06-29T09:48:40.215Z,60672.00
2018-06-29T09:49:40.133Z,55360.00
2018-06-29T09:50:40.052Z,44928.00
2018-06-29T09:51:39.972Z,31520.00
2018-06-29T09:52:39.912Z,24256.00
2018-06-29T09:53:39.835Z,28672.00
2018-06-29T09:54:39.752Z,33280.00
2018-06-29T09:55:39.675Z,35360.00
2018-06-29T09:56:39.592Z,34048.00
2018-06-29T09:57:39.515Z,39232.00
2018-06-29T09:58:39.444Z,37184.00
2018-06-29T09:59:39.363Z,43296.00
2018-06-29T10:00:39.314Z,39616.00
2018-06-29T10:01:39.205Z,35392.00
2018-06-29T10:02:39.465Z,40768.00
2018-06-29T10:03:39.051Z,35360.00
2018-06-29T10:04:38.970Z,32192.00
2018-06-29T10:05:38.892Z,41536.00
2018-06-29T10:06:38.815Z,46752.00
2018-06-29T10:07:38.718Z,47904.00
2018-06-29T10:08:38.646Z,47936.00
2018-06-29T10:09:38.587Z,47744.00
2018-06-29T10:10:38.485Z,69408.00
2018-06-29T10:11:38.407Z,122816.00
2018-06-29T10:12:38.327Z,175712.00
2018-06-29T10:13:38.252Z,208704.00
2018-06-29T10:14:38.174Z,186880.00
2018-06-29T10:15:38.110Z,147872.00
2018-06-29T10:16:38.021Z,144480.00
2018-06-29T10:17:37.940Z,143232.00
2018-06-29T10:18:38.112Z,134592.00
2018-06-29T10:19:37.882Z,125824.00
2018-06-29T10:20:37.705Z,107200.00
2018-06-29T10:21:37.628Z,112352.00
2018-06-29T10:22:37.556Z,124416.00
2018-06-29T10:23:37.479Z,115296.00
2018-06-29T10:24:37.404Z,121728.00
2018-06-29T10:25:37.327Z,145760.00
2018-06-29T10:26:37.243Z,39904.00
2018-06-29T10:27:37.166Z,50304.00
2018-06-29T10:28:37.100Z,60000.00
2018-06-29T10:29:37.022Z,78848.00
2018-06-29T10:30:36.948Z,72832.00
2018-06-29T10:31:36.871Z,57856.00
2018-06-29T10:32:36.786Z,49280.00
2018-06-29T10:33:36.707Z,45728.00
2018-06-29T10:34:36.632Z,68320.00
2018-06-29T10:35:36.557Z,78528.00
2018-06-29T10:36:36.492Z,45696.00
2018-06-29T10:37:36.401Z,26912.00
2018-06-29T10:38:36.319Z,36544.00
2018-06-29T10:39:36.239Z,35136.00
2018-06-29T10:40:36.165Z,20384.00
2018-06-29T10:41:36.089Z,20640.00
2018-06-29T10:42:36.004Z,22176.00
2018-06-29T10:43:35.925Z,60640.00
2018-06-29T10:44:35.910Z,84384.00
2018-06-29T10:45:35.767Z,81760.00
2018-06-29T10:46:35.693Z,115552.00
2018-06-29T10:47:35.603Z,125280.00
2018-06-29T10:48:35.523Z,128544.00
2018-06-29T10:49:35.445Z,126688.00
2018-06-29T10:50:35.371Z,127744.00
2018-06-29T10:51:35.296Z,125728.00
2018-06-29T10:52:35.212Z,125344.00
2018-06-29T10:53:35.133Z,123168.00
2018-06-29T10:54:35.038Z,118048.00
2018-06-29T10:55:34.960Z,112640.00
2018-06-29T10:56:34.887Z,124000.00
2018-06-29T10:57:34.806Z,119200.00
2018-06-29T10:58:34.778Z,118144.00
2018-06-29T10:59:34.646Z,105792.00
2018-06-29T11:00:34.571Z,97120.00
2018-06-29T11:01:34.491Z,87136.00
2018-06-29T11:02:34.419Z,95328.00
2018-06-29T11:03:34.339Z,106592.00
2018-06-29T11:04:34.256Z,112640.00
2018-06-29T11:05:34.219Z,115104.00
2018-06-29T11:06:34.115Z,114144.00
2018-06-29T11:07:34.037Z,116928.00
2018-06-29T11:08:33.961Z,117568.00
2018-06-29T11:09:33.882Z,121600.00
2018-06-29T11:10:33.800Z,122080.00
2018-06-29T11:11:33.722Z,113056.00
2018-06-29T11:12:33.645Z,105568.00
2018-06-29T11:13:33.568Z,95584.00
2018-06-29T11:14:33.496Z,83520.00
2018-06-29T11:15:33.417Z,96000.00
2018-06-29T11:16:33.341Z,90048.00
2018-06-29T11:17:33.263Z,98784.00
2018-06-29T11:18:33.190Z,84000.00
2018-06-29T11:19:33.112Z,93728.00
2018-06-29T11:20:33.040Z,76064.00
2018-06-29T11:21:32.962Z,87808.00
2018-06-29T11:22:32.889Z,76768.00
2018-06-29T11:23:32.809Z,72064.00
2018-06-29T11:24:32.733Z,49728.00
2018-06-29T11:25:32.656Z,39136.00
2018-06-29T11:26:32.572Z,37024.00
2018-06-29T11:27:32.494Z,32864.00
2018-06-29T11:28:32.431Z,36256.00
2018-06-29T11:29:32.353Z,33952.00
2018-06-29T11:30:32.271Z,34304.00
2018-06-29T11:31:32.192Z,35712.00
2018-06-29T11:32:32.118Z,40480.00
2018-06-29T11:33:32.033Z,38976.00
2018-06-29T11:34:31.959Z,43456.00
2018-06-29T11:35:31.881Z,40768.00
2018-06-29T11:36:31.800Z,39872.00
2018-06-29T11:37:31.768Z,35232.00
2018-06-29T11:38:31.887Z,34304.00
2018-06-29T11:39:31.558Z,37216.00
2018-06-29T11:40:31.478Z,38624.00
2018-06-29T11:41:31.400Z,38112.00
2018-06-29T11:42:31.329Z,34976.00
2018-06-29T11:43:31.228Z,36352.00
2018-06-29T11:44:31.151Z,32736.00
2018-06-29T11:45:31.079Z,34560.00
2018-06-29T11:46:30.991Z,31168.00
2018-06-29T11:47:30.915Z,26496.00
2018-06-29T11:48:30.825Z,28192.00
2018-06-29T11:49:30.745Z,39392.00
2018-06-29T11:50:30.671Z,40544.00
2018-06-29T11:51:30.623Z,34080.00
2018-06-29T11:52:30.499Z,62752.00
2018-06-29T11:53:30.419Z,86304.00
2018-06-29T11:54:30.343Z,95680.00
2018-06-29T11:55:30.264Z,110240.00
2018-06-29T11:56:30.176Z,102432.00
2018-06-29T11:57:30.101Z,108480.00
2018-06-29T11:58:30.266Z,107104.00
2018-06-29T11:59:29.925Z,71072.00
2018-06-29T12:00:29.907Z,77184.00
2018-06-29T12:01:29.772Z,83680.00
2018-06-29T12:02:29.703Z,102112.00
2018-06-29T12:03:29.611Z,100032.00
2018-06-29T12:04:29.518Z,98336.00
2018-06-29T12:05:29.441Z,98720.00
2018-06-29T12:06:29.366Z,88704.00
2018-06-29T12:07:29.292Z,77856.00